Time;durP1;ratioP1;P1;durP2;ratioP2;P2;SDS_P1;SDS_P2;PMS_P1;PMS_P2;Temp;Humidity;BMP_temperature;BMP_pressure;BME280_temperature;BME280_humidity;BME280_pressure;Samples;Min_cycle;Max_cycle;Signal;HPM_P1;HPM_P2
2022/10/13 00:02:21;;;;;;;51.05;28.10;;;;;;;5.57;65.26;99336.09;5060087;28;20086;-72
2022/10/13 00:04:47;;;;;;;51.28;27.48;;;;;;;5.57;65.67;99338.81;5061903;28;20026;-71
2022/10/13 00:07:12;;;;;;;50.25;28.00;;;;;;;5.55;65.97;99332.78;5050490;28;20151;-72
2022/10/13 00:09:37;;;;;;;54.63;28.25;;;;;;;5.54;66.01;99322.16;5068487;28;20041;-71
2022/10/13 00:12:03;;;;;;;54.60;28.08;;;;;;;5.51;66.05;99328.88;5079339;28;20029;-70
2022/10/13 00:14:28;;;;;;;49.38;26.85;;;;;;;5.49;65.44;99331.06;5064206;28;21508;-71
2022/10/13 00:16:54;;;;;;;51.70;27.08;;;;;;;5.45;65.65;99327.16;5066158;28;20028;-72
2022/10/13 00:19:19;;;;;;;46.53;25.67;;;;;;;5.44;65.32;99329.03;5068989;28;20063;-72
2022/10/13 00:21:44;;;;;;;47.60;26.77;;;;;;;5.45;66.03;99335.31;5068501;28;20540;-72
2022/10/13 00:24:10;;;;;;;49.42;27.00;;;;;;;5.44;65.83;99325.50;5060283;28;20036;-71
2022/10/13 00:26:36;;;;;;;48.85;26.15;;;;;;;5.42;65.17;99330.34;5059369;28;20028;-71
2022/10/13 00:29:01;;;;;;;47.63;25.75;;;;;;;5.38;65.75;99329.19;5071105;28;20548;-71
2022/10/13 00:31:30;;;;;;;44.92;25.45;;;;;;;5.34;66.02;99326.94;5050260;28;20036;-71
2022/10/13 00:34:00;;;;;;;44.10;24.92;;;;;;;5.32;65.81;99320.06;5071682;28;20036;-71
2022/10/13 00:36:25;;;;;;;44.40;24.52;;;;;;;5.27;65.67;99323.53;5071645;28;20029;-71
2022/10/13 00:38:51;;;;;;;40.67;23.38;;;;;;;5.26;65.41;99324.59;5071292;28;20041;-71
2022/10/13 00:41:17;;;;;;;43.63;24.58;;;;;;;5.24;65.30;99321.28;5071532;28;20032;-71
2022/10/13 00:44:34;;;;;;;41.63;23.20;;;;;;;5.20;65.84;99320.09;5071149;28;20108;-72
2022/10/13 00:46:59;;;;;;;40.58;23.33;;;;;;;5.21;65.49;99317.16;5041421;28;20052;-71
2022/10/13 00:49:25;;;;;;;43.60;23.13;;;;;;;5.18;65.33;99316.78;5068181;28;20471;-71
2022/10/13 00:51:50;;;;;;;45.10;24.00;;;;;;;5.17;65.56;99313.25;5069878;28;20486;-71
2022/10/13 00:54:23;;;;;;;42.13;22.65;;;;;;;5.16;65.54;99313.50;5069275;28;20027;-71
2022/10/13 00:56:50;;;;;;;42.03;22.23;;;;;;;5.14;65.91;99319.19;5065156;28;20028;-72
2022/10/13 00:59:21;;;;;;;42.63;22.55;;;;;;;5.13;66.26;99311.25;5070341;28;20024;-71
2022/10/13 01:01:50;;;;;;;37.88;21.70;;;;;;;5.11;65.93;99311.50;5070292;28;20784;-72
2022/10/13 01:04:18;;;;;;;42.03;21.98;;;;;;;5.12;66.12;99307.72;5076211;28;20028;-71
2022/10/13 01:06:44;;;;;;;42.00;22.75;;;;;;;5.13;66.02;99309.38;5071424;28;20099;-70
2022/10/13 01:09:10;;;;;;;39.22;22.90;;;;;;;5.15;66.19;99307.25;5075981;28;20036;-71
2022/10/13 01:11:54;;;;;;;43.25;22.58;;;;;;;5.11;66.11;99305.22;5074380;28;20036;-71
2022/10/13 01:14:34;;;;;;;40.40;21.75;;;;;;;5.12;65.68;99302.28;5070214;28;20043;-71
2022/10/13 01:16:59;;;;;;;;;;;;;;;5.12;66.02;99301.44;5068200;28;20025;-71
2022/10/13 01:20:00;;;;;;;41.60;22.10;;;;;;;5.11;65.69;99299.78;5064753;28;20325;-71
2022/10/13 01:23:05;;;;;;;40.55;22.00;;;;;;;5.08;66.04;99306.53;4997274;28;20200;-71
2022/10/13 01:25:55;;;;;;;38.30;21.73;;;;;;;5.08;66.16;99306.53;5048105;28;20052;-71
2022/10/13 01:28:46;;;;;;;40.80;21.80;;;;;;;5.08;65.83;99298.38;5067707;28;20094;-71
2022/10/13 01:31:31;;;;;;;40.20;23.70;;;;;;;5.05;65.68;99299.69;5050584;28;20064;-71
2022/10/13 01:34:15;;;;;;;38.40;21.77;;;;;;;5.07;65.75;99294.00;5050169;28;20494;-71
2022/10/13 01:36:49;;;;;;;41.78;22.52;;;;;;;5.07;65.77;99299.44;5069869;28;20033;-70
2022/10/13 01:39:34;;;;;;;35.53;20.88;;;;;;;5.06;65.74;99290.47;5068261;28;20025;-71
2022/10/13 01:42:21;;;;;;;42.45;22.38;;;;;;;5.07;65.93;99296.72;5078024;28;20020;-71
2022/10/13 01:44:55;;;;;;;37.75;21.55;;;;;;;5.07;66.35;99292.13;5061484;28;20039;-71
2022/10/13 01:47:22;;;;;;;39.53;21.67;;;;;;;5.07;65.93;99285.84;5077296;28;20028;-71
2022/10/13 01:49:50;;;;;;;39.95;21.73;;;;;;;5.09;65.92;99286.44;5063882;28;20095;-71
2022/10/13 01:52:19;;;;;;;34.65;20.13;;;;;;;5.11;66.71;99286.19;5071394;28;20024;-70
2022/10/13 01:54:50;;;;;;;34.97;20.77;;;;;;;5.11;66.56;99287.03;5067833;28;20040;-70
2022/10/13 01:57:32;;;;;;;35.22;21.13;;;;;;;5.12;66.36;99283.25;5069428;28;20514;-71
2022/10/13 02:00:01;;;;;;;36.83;21.10;;;;;;;5.15;66.50;99290.06;5070258;28;20044;-71
2022/10/13 02:02:38;;;;;;;38.10;21.13;;;;;;;5.14;66.14;99289.25;5065931;28;20398;-71
2022/10/13 02:05:07;;;;;;;33.90;20.77;;;;;;;5.16;65.96;99286.28;5066925;28;20035;-71
2022/10/13 02:07:51;;;;;;;41.13;21.30;;;;;;;5.17;66.11;99283.34;5049311;28;20036;-70
2022/10/13 02:10:27;;;;;;;32.70;21.10;;;;;;;5.19;66.76;99281.22;5046622;28;20440;-71
2022/10/13 02:12:59;;;;;;;36.60;21.20;;;;;;;5.20;66.56;99288.31;5051578;28;20454;-70
2022/10/13 02:15:35;;;;;;;35.22;20.90;;;;;;;5.21;66.60;99283.69;5062105;28;20092;-70
2022/10/13 02:18:03;;;;;;;36.97;20.55;;;;;;;5.23;66.84;99281.56;5061015;28;20287;-70
2022/10/13 02:20:29;;;;;;;34.55;21.33;;;;;;;5.19;66.27;99273.06;5067092;28;20498;-70
2022/10/13 02:23:01;;;;;;;32.40;20.98;;;;;;;5.18;66.18;99271.41;5069285;28;20493;-71
2022/10/13 02:25:28;;;;;;;39.53;21.58;;;;;;;5.18;66.50;99265.97;5088377;28;20042;-71
2022/10/13 02:27:56;;;;;;;32.10;20.40;;;;;;;5.18;66.29;99268.69;5086002;28;20041;-71
2022/10/13 02:30:24;;;;;;;35.17;20.92;;;;;;;5.18;66.17;99262.41;5067034;28;20036;-70
2022/10/13 02:32:50;;;;;;;38.00;21.05;;;;;;;5.15;66.77;99254.72;5069425;28;20036;-71
2022/10/13 02:35:15;;;;;;;34.80;20.13;;;;;;;5.14;66.48;99255.78;5067929;28;20043;-69
2022/10/13 02:37:41;;;;;;;34.28;20.35;;;;;;;5.14;66.57;99255.78;5063874;28;20659;-70
2022/10/13 02:40:07;;;;;;;33.47;20.15;;;;;;;5.14;66.41;99259.34;5065822;28;20056;-69
2022/10/13 02:42:32;;;;;;;35.45;20.67;;;;;;;5.14;66.94;99259.34;5065160;28;20029;-70
2022/10/13 02:44:58;;;;;;;35.47;20.50;;;;;;;5.12;66.39;99249.78;5069847;28;20078;-69
2022/10/13 02:47:23;;;;;;;35.10;20.30;;;;;;;5.12;66.67;99252.50;5066999;28;20128;-71
2022/10/13 02:49:48;;;;;;;33.13;20.67;;;;;;;5.10;66.28;99250.03;5068308;28;20474;-70
2022/10/13 02:52:14;;;;;;;36.78;20.98;;;;;;;5.10;66.32;99243.75;5070041;28;20032;-70
2022/10/13 02:54:39;;;;;;;34.33;20.58;;;;;;;5.11;66.43;99243.53;5070123;28;20040;-71
2022/10/13 02:57:04;;;;;;;32.72;20.45;;;;;;;5.11;66.42;99237.25;5065337;28;20426;-70
2022/10/13 02:59:30;;;;;;;35.88;21.45;;;;;;;5.10;66.45;99239.16;5065804;28;20120;-70
2022/10/13 03:01:55;;;;;;;37.50;21.13;;;;;;;5.10;66.80;99222.84;5066763;28;20051;-71
2022/10/13 03:04:21;;;;;;;36.03;21.95;;;;;;;5.10;66.32;99239.16;5077944;28;20469;-70
2022/10/13 03:06:46;;;;;;;37.30;21.25;;;;;;;5.11;66.51;99234.53;5074854;28;20426;-71
2022/10/13 03:09:12;;;;;;;38.05;21.95;;;;;;;5.09;66.58;99231.25;5064241;28;20038;-71
2022/10/13 03:11:37;;;;;;;35.03;21.88;;;;;;;5.07;66.54;99229.59;5068182;28;20107;-72
2022/10/13 03:14:02;;;;;;;36.25;21.98;;;;;;;5.02;66.47;99226.75;5063856;28;20059;-71
2022/10/13 03:16:28;;;;;;;39.92;22.17;;;;;;;5.03;66.60;99230.28;5063447;28;20025;-70
2022/10/13 03:18:53;;;;;;;37.22;22.30;;;;;;;5.02;66.65;99234.06;5075346;28;20241;-70
2022/10/13 03:21:19;;;;;;;37.20;22.40;;;;;;;4.99;66.22;99238.13;5069233;28;20117;-71
2022/10/13 03:23:44;;;;;;;37.08;23.23;;;;;;;4.99;66.32;99231.84;5065275;28;20048;-71
2022/10/13 03:26:10;;;;;;;38.92;23.08;;;;;;;4.97;66.37;99237.53;5066602;28;20504;-71
2022/10/13 03:28:35;;;;;;;36.72;22.60;;;;;;;4.96;66.44;99233.16;5063655;28;20040;-71
2022/10/13 03:31:06;;;;;;;40.85;23.30;;;;;;;4.95;66.58;99227.94;5045348;28;20036;-71
2022/10/13 03:33:32;;;;;;;40.20;22.73;;;;;;;4.95;67.04;99233.38;5069508;28;20166;-71
2022/10/13 03:36:02;;;;;;;41.83;23.05;;;;;;;4.94;67.00;99229.00;5064803;28;20542;-71
2022/10/13 03:38:32;;;;;;;42.08;24.80;;;;;;;4.93;66.62;99233.63;5072948;28;20049;-70
2022/10/13 03:41:03;;;;;;;40.63;23.27;;;;;;;4.93;66.90;99239.06;5050288;28;20037;-71
2022/10/13 03:43:29;;;;;;;39.63;24.15;;;;;;;4.95;66.65;99236.94;5051874;28;20055;-71
2022/10/13 03:45:57;;;;;;;38.97;25.05;;;;;;;4.94;66.76;99246.16;5070036;28;20475;-71
2022/10/13 03:48:22;;;;;;;42.55;24.25;;;;;;;4.91;66.35;99239.28;5078971;28;20036;-71
2022/10/13 03:50:48;;;;;;;41.40;24.80;;;;;;;4.85;66.67;99242.16;5070954;28;20127;-70
2022/10/13 03:53:14;;;;;;;38.47;23.90;;;;;;;4.84;66.45;99240.50;5071690;28;20031;-71
2022/10/13 03:55:39;;;;;;;40.88;24.92;;;;;;;4.83;66.55;99234.25;5069696;28;20037;-71
2022/10/13 03:58:05;;;;;;;41.95;24.98;;;;;;;4.81;67.09;99241.81;5073559;28;20025;-71
2022/10/13 04:00:30;;;;;;;40.92;25.27;;;;;;;4.80;67.10;99239.31;5063049;28;20027;-71
2022/10/13 04:02:55;;;;;;;44.63;25.00;;;;;;;4.79;66.55;99238.50;5070312;28;20029;-71
2022/10/13 04:05:21;;;;;;;43.95;26.85;;;;;;;4.79;67.33;99243.09;5076942;28;20024;-71
2022/10/13 04:07:46;;;;;;;40.58;25.88;;;;;;;4.77;67.17;99246.09;5072140;28;20078;-71
2022/10/13 04:10:12;;;;;;;47.15;27.15;;;;;;;4.78;66.72;99242.28;5072125;28;20052;-71
2022/10/13 04:12:38;;;;;;;44.05;26.90;;;;;;;4.79;66.95;99249.38;5078626;28;20032;-71
2022/10/13 04:15:03;;;;;;;44.22;26.17;;;;;;;4.80;67.31;99247.47;5072678;28;20052;-71
2022/10/13 04:17:29;;;;;;;44.63;25.38;;;;;;;4.79;66.97;99243.09;5071794;28;20020;-71
2022/10/13 04:19:54;;;;;;;44.10;27.73;;;;;;;4.79;66.96;99238.50;5067322;28;20463;-71
2022/10/13 04:22:19;;;;;;;45.10;27.40;;;;;;;4.79;66.97;99248.53;5080211;28;20093;-70
2022/10/13 04:24:45;;;;;;;43.05;26.23;;;;;;;4.79;66.95;99243.94;5073233;28;20028;-70
2022/10/13 04:27:11;;;;;;;50.17;29.15;;;;;;;4.80;66.98;99234.72;5070458;28;20071;-70
2022/10/13 04:29:36;;;;;;;55.08;30.52;;;;;;;4.82;67.06;99237.19;5071307;28;20047;-70
2022/10/13 04:32:01;;;;;;;61.10;33.17;;;;;;;4.81;67.54;99240.97;5070018;28;20548;-69
2022/10/13 04:34:27;;;;;;;53.70;32.72;;;;;;;4.80;67.16;99234.72;5068890;28;20041;-70
2022/10/13 04:36:52;;;;;;;60.00;32.20;;;;;;;4.79;67.09;99243.94;5063708;28;20070;-70
2022/10/13 04:39:18;;;;;;;55.63;31.17;;;;;;;4.80;67.37;99240.16;5061733;28;20394;-70
2022/10/13 04:41:44;;;;;;;49.45;28.83;;;;;;;4.81;67.69;99235.53;5066003;28;20383;-70
2022/10/13 04:44:09;;;;;;;55.05;30.38;;;;;;;4.81;67.49;99241.81;5053569;28;20025;-69
2022/10/13 04:46:35;;;;;;;54.58;29.40;;;;;;;4.79;67.82;99237.66;5067924;28;20044;-70
2022/10/13 04:49:00;;;;;;;47.67;28.27;;;;;;;4.78;66.89;99226.00;5071753;28;20564;-71
2022/10/13 04:51:25;;;;;;;48.28;28.73;;;;;;;4.74;67.81;99231.06;5068400;28;20029;-70
2022/10/13 04:53:59;;;;;;;46.70;27.73;;;;;;;4.73;66.84;99228.59;5071115;28;20024;-71
2022/10/13 04:56:25;;;;;;;46.38;27.38;;;;;;;4.73;67.34;99223.97;5071803;28;20032;-71
2022/10/13 04:58:50;;;;;;;52.85;29.17;;;;;;;4.71;67.41;99234.25;5067008;28;20033;-71
2022/10/13 05:01:19;;;;;;;49.10;27.90;;;;;;;4.69;67.67;99227.41;5053106;28;20115;-70
2022/10/13 05:03:44;;;;;;;49.17;27.85;;;;;;;4.67;66.90;99235.81;5050898;28;20054;-71
2022/10/13 05:06:17;;;;;;;50.70;28.35;;;;;;;4.66;67.57;99238.75;5071516;28;20024;-71
2022/10/13 05:08:43;;;;;;;52.13;28.15;;;;;;;4.67;67.06;99230.38;5070227;28;20062;-71
2022/10/13 05:11:09;;;;;;;50.95;28.20;;;;;;;4.65;66.91;99229.78;5063405;28;20115;-71
2022/10/13 05:13:35;;;;;;;47.03;27.80;;;;;;;4.66;66.99;99226.00;5054971;28;20028;-70
2022/10/13 05:16:08;;;;;;;48.42;28.73;;;;;;;4.68;67.07;99231.19;5073583;28;20044;-71
2022/10/13 05:18:33;;;;;;;48.28;27.05;;;;;;;4.70;67.79;99226.34;5066818;28;20025;-71
2022/10/13 05:21:14;;;;;;;45.85;26.10;;;;;;;4.69;67.62;99222.78;5067336;28;20039;-70
2022/10/13 05:23:40;;;;;;;40.53;23.98;;;;;;;4.72;67.44;99230.47;5067857;28;20036;-71
2022/10/13 05:26:17;;;;;;;44.50;25.05;;;;;;;4.73;67.15;99229.41;5072019;28;20039;-70
2022/10/13 05:28:43;;;;;;;42.45;26.17;;;;;;;4.74;67.73;99228.34;5054651;28;20036;-71
2022/10/13 05:31:12;;;;;;;43.95;24.85;;;;;;;4.73;67.74;99218.53;5072159;28;20033;-70
2022/10/13 05:33:38;;;;;;;38.78;24.30;;;;;;;4.77;67.08;99227.06;5087307;28;20036;-71
2022/10/13 05:36:09;;;;;;;42.40;24.42;;;;;;;4.77;67.60;99238.75;5091715;28;20039;-71
2022/10/13 05:38:35;;;;;;;36.10;23.40;;;;;;;4.80;67.27;99233.88;5093875;28;20024;-70
2022/10/13 05:41:12;;;;;;;42.03;25.05;;;;;;;4.82;68.02;99234.47;5064380;28;20037;-71
2022/10/13 05:43:38;;;;;;;42.95;25.23;;;;;;;4.88;67.73;99241.69;5073798;28;20021;-71
2022/10/13 05:46:05;;;;;;;46.70;26.05;;;;;;;4.89;68.13;99241.44;5054697;28;20463;-70
2022/10/13 05:48:30;;;;;;;44.58;25.73;;;;;;;4.92;68.07;99237.41;5054157;28;20029;-70
2022/10/13 05:50:58;;;;;;;42.38;25.23;;;;;;;4.97;68.46;99237.53;5070804;28;20521;-70
2022/10/13 05:53:29;;;;;;;45.50;25.27;;;;;;;5.01;68.46;99237.88;5064473;28;20036;-71
2022/10/13 05:56:04;;;;;;;41.85;25.38;;;;;;;5.04;68.11;99240.09;5062375;28;20021;-70
2022/10/13 05:58:38;;;;;;;44.28;25.90;;;;;;;5.06;68.44;99238.81;5046323;28;20032;-70
2022/10/13 06:01:10;;;;;;;43.85;26.45;;;;;;;5.07;68.07;99237.75;5067316;28;20031;-70
2022/10/13 06:03:37;;;;;;;47.55;28.42;;;;;;;5.13;68.35;99227.78;5062445;28;20394;-70
2022/10/13 06:06:02;;;;;;;44.72;27.27;;;;;;;5.16;68.44;99231.91;5066054;28;20036;-71
2022/10/13 06:08:28;;;;;;;63.30;36.63;;;;;;;5.20;68.50;99233.06;5065395;28;20109;-71
2022/10/13 06:10:54;;;;;;;51.75;32.88;;;;;;;5.25;68.58;99230.47;5074928;28;20071;-71
2022/10/13 06:13:19;;;;;;;47.65;29.35;;;;;;;5.28;68.50;99234.59;5060319;28;20029;-70
2022/10/13 06:15:45;;;;;;;44.60;28.85;;;;;;;5.34;68.30;99225.47;5076108;28;20111;-70
2022/10/13 06:18:12;;;;;;;47.38;28.98;;;;;;;5.38;68.48;99229.34;5044364;28;20032;-70
2022/10/13 06:20:37;;;;;;;41.85;28.02;;;;;;;5.44;68.70;99230.28;5062274;28;20028;-71
2022/10/13 06:23:03;;;;;;;49.70;29.17;;;;;;;5.50;68.85;99232.84;5064165;28;20028;-71
2022/10/13 06:25:28;;;;;;;59.90;31.90;;;;;;;5.55;68.83;99226.66;5057119;28;20025;-71
2022/10/13 06:27:56;;;;;;;58.20;32.47;;;;;;;5.60;68.51;99231.38;5058756;28;20665;-72
2022/10/13 06:30:21;;;;;;;48.42;31.15;;;;;;;5.66;69.00;99230.41;5061701;28;20083;-72
2022/10/13 06:32:47;;;;;;;45.92;29.00;;;;;;;5.72;68.71;99223.97;5067866;28;20413;-71
2022/10/13 06:35:12;;;;;;;44.03;27.98;;;;;;;5.77;68.68;99232.22;5070211;28;20027;-71
2022/10/13 06:37:38;;;;;;;43.03;26.98;;;;;;;5.84;69.31;99233.97;5069827;28;20020;-70
2022/10/13 06:40:04;;;;;;;43.30;27.27;;;;;;;5.87;68.88;99230.75;5069901;28;20367;-72
2022/10/13 06:42:30;;;;;;;45.08;26.58;;;;;;;5.90;68.85;99228.38;5064520;28;20377;-71
2022/10/13 06:44:56;;;;;;;45.35;28.02;;;;;;;5.95;68.96;99228.44;5064950;28;20032;-71
2022/10/13 06:47:21;;;;;;;50.30;29.25;;;;;;;6.03;69.18;99231.88;5068118;28;20505;-71
2022/10/13 06:49:47;;;;;;;54.67;33.00;;;;;;;6.10;69.30;99222.47;5071762;28;20123;-72
2022/10/13 06:52:12;;;;;;;59.47;36.25;;;;;;;6.17;69.60;99221.47;5070485;28;20032;-71
2022/10/13 06:54:37;;;;;;;52.83;30.70;;;;;;;6.25;69.59;99219.16;5068960;28;20390;-71
2022/10/13 06:57:05;;;;;;;44.47;28.90;;;;;;;6.35;69.81;99223.09;5069825;28;20067;-71
2022/10/13 06:59:31;;;;;;;42.85;28.58;;;;;;;6.43;69.59;99221.88;5072583;28;20024;-69
2022/10/13 07:01:56;;;;;;;41.00;27.25;;;;;;;6.50;69.69;99220.59;5068095;28;20050;-71
2022/10/13 07:04:22;;;;;;;40.35;25.90;;;;;;;6.58;69.89;99224.00;5088555;28;20147;-70
2022/10/13 07:06:47;;;;;;;40.47;24.98;;;;;;;6.64;70.14;99223.00;5074287;28;20025;-70
2022/10/13 07:09:13;;;;;;;40.67;26.45;;;;;;;6.73;69.66;99220.66;5069863;28;20103;-71
2022/10/13 07:11:38;;;;;;;60.65;33.13;;;;;;;6.79;70.00;99220.44;5071030;28;20108;-70
2022/10/13 07:14:03;;;;;;;55.03;34.15;;;;;;;6.88;70.06;99220.84;5071144;28;20032;-71
2022/10/13 07:16:29;;;;;;;49.47;29.25;;;;;;;6.96;69.84;99228.56;5056632;28;20040;-71
2022/10/13 07:18:54;;;;;;;42.58;25.77;;;;;;;7.05;69.88;99228.13;5078767;28;20111;-70
2022/10/13 07:21:21;;;;;;;37.53;24.80;;;;;;;7.09;69.70;99211.03;5086134;28;20378;-70
2022/10/13 07:23:47;;;;;;;39.05;25.77;;;;;;;7.19;70.29;99225.84;5067740;28;20052;-71
2022/10/13 07:26:14;;;;;;;40.78;26.00;;;;;;;7.26;69.91;99216.41;5080952;28;20066;-71
2022/10/13 07:28:40;;;;;;;42.75;27.75;;;;;;;7.33;70.15;99218.91;5071829;28;20136;-72
2022/10/13 07:31:12;;;;;;;41.33;27.83;;;;;;;7.41;70.28;99204.81;5083975;28;20123;-71
2022/10/13 07:33:38;;;;;;;38.63;25.50;;;;;;;7.48;70.13;99212.00;5073113;28;20124;-70
2022/10/13 07:36:04;;;;;;;41.75;26.30;;;;;;;7.56;70.08;99206.03;5076855;28;20100;-70
2022/10/13 07:38:30;;;;;;;43.08;25.77;;;;;;;7.60;69.77;99201.72;5083755;28;20033;-71
2022/10/13 07:40:58;;;;;;;41.13;25.48;;;;;;;7.69;70.56;99208.38;5080498;28;20115;-71
2022/10/13 07:43:23;;;;;;;39.58;24.67;;;;;;;7.77;70.13;99200.78;5092467;28;20016;-70
2022/10/13 07:45:49;;;;;;;39.75;25.42;;;;;;;7.81;70.38;99194.53;5076268;28;20024;-69
2022/10/13 07:48:15;;;;;;;38.42;24.65;;;;;;;7.87;70.45;99198.16;5069873;28;20505;-69
2022/10/13 07:50:40;;;;;;;41.42;26.90;;;;;;;7.93;70.85;99185.34;5048974;28;20056;-71
2022/10/13 07:53:06;;;;;;;38.95;25.20;;;;;;;8.00;70.87;99188.69;5064643;28;20133;-70
2022/10/13 07:55:33;;;;;;;39.55;26.33;;;;;;;8.08;71.09;99190.94;5062437;28;20020;-69
2022/10/13 07:58:00;;;;;;;38.50;25.30;;;;;;;8.19;70.45;99191.84;5058855;28;20102;-69
2022/10/13 08:00:26;;;;;;;37.55;23.02;;;;;;;8.28;70.50;99195.72;5061643;28;20402;-70
2022/10/13 08:02:52;;;;;;;39.45;25.02;;;;;;;8.38;70.99;99188.66;5063578;28;20028;-70
2022/10/13 08:05:17;;;;;;;40.58;25.50;;;;;;;8.46;71.07;99189.00;5069761;28;20035;-72
2022/10/13 08:07:43;;;;;;;38.03;24.77;;;;;;;8.54;70.44;99186.91;5075702;28;20650;-70
2022/10/13 08:10:08;;;;;;;35.83;23.42;;;;;;;8.62;71.07;99189.94;5071276;28;20028;-69
2022/10/13 08:12:35;;;;;;;36.85;24.60;;;;;;;8.70;70.53;99182.34;5080377;28;20146;-69
2022/10/13 08:15:00;;;;;;;37.20;23.50;;;;;;;8.77;70.78;99174.69;5059415;28;20021;-70
2022/10/13 08:17:26;;;;;;;32.97;21.88;;;;;;;8.85;71.04;99179.66;5073171;28;20028;-69
2022/10/13 08:19:51;;;;;;;31.70;20.98;;;;;;;8.94;70.70;99177.25;5083768;28;20448;-70
2022/10/13 08:22:17;;;;;;;30.58;20.50;;;;;;;9.02;70.59;99171.22;5071711;28;20027;-70
2022/10/13 08:24:42;;;;;;;30.95;20.95;;;;;;;9.13;70.92;99168.53;5070041;28;20028;-69
2022/10/13 08:27:12;;;;;;;28.73;19.52;;;;;;;9.20;70.45;99172.66;5092289;28;20404;-69
2022/10/13 08:29:37;;;;;;;29.42;20.45;;;;;;;9.28;70.88;99162.28;5070168;28;20555;-71
2022/10/13 08:32:03;;;;;;;28.40;19.23;;;;;;;9.36;70.88;99164.50;5055804;28;20021;-70
2022/10/13 08:34:28;;;;;;;32.00;19.48;;;;;;;9.43;71.07;99159.59;5058272;28;20457;-69
2022/10/13 08:36:55;;;;;;;33.30;21.13;;;;;;;9.53;70.77;99161.50;5069512;28;20460;-74
2022/10/13 08:39:21;;;;;;;31.52;19.85;;;;;;;9.62;70.64;99157.13;5080054;28;20089;-70
2022/10/13 08:41:47;;;;;;;33.17;20.77;;;;;;;9.71;71.10;99162.09;5069935;28;20028;-70
2022/10/13 08:44:30;;;;;;;32.55;20.08;;;;;;;9.77;70.63;99159.06;5072160;28;20029;-70
2022/10/13 08:47:05;;;;;;;32.50;20.40;;;;;;;9.89;70.84;99161.53;5081495;28;20027;-70
2022/10/13 08:49:30;;;;;;;27.35;17.63;;;;;;;9.99;70.07;99157.94;5092112;28;20457;-70
2022/10/13 08:51:57;;;;;;;27.55;18.50;;;;;;;10.07;70.53;99154.66;5092446;28;20028;-72
2022/10/13 08:54:24;;;;;;;30.70;19.38;;;;;;;10.18;70.70;99160.13;5091946;28;20059;-70
2022/10/13 08:56:50;;;;;;;26.35;18.25;;;;;;;10.28;70.21;99154.63;5092334;28;20524;-70
2022/10/13 08:59:17;;;;;;;31.90;18.38;;;;;;;10.37;71.09;99143.91;5092389;28;20028;-70
2022/10/13 09:01:47;;;;;;;23.88;16.88;;;;;;;10.48;70.38;99148.31;5085709;28;20054;-70
2022/10/13 09:04:35;;;;;;;27.85;16.77;;;;;;;10.60;70.28;99147.19;5091342;28;20098;-71
2022/10/13 09:07:22;;;;;;;23.48;16.38;;;;;;;10.74;70.01;99144.66;5081603;28;20112;-72
2022/10/13 09:09:52;;;;;;;25.35;16.95;;;;;;;10.85;69.98;99140.75;5071421;28;20108;-70
2022/10/13 09:12:25;;;;;;;23.98;17.13;;;;;;;10.93;69.90;99142.91;5071213;28;20498;-70
2022/10/13 09:14:58;;;;;;;26.25;16.85;;;;;;;11.02;70.20;99143.16;5052138;28;20074;-71
2022/10/13 09:17:26;;;;;;;23.45;16.40;;;;;;;11.12;70.35;99137.59;5071175;28;20079;-71
2022/10/13 09:20:03;;;;;;;25.02;17.63;;;;;;;11.24;69.50;99129.03;5071375;28;20036;-69
2022/10/13 09:22:37;;;;;;;24.52;16.75;;;;;;;11.37;70.20;99132.25;5071348;28;20670;-70
2022/10/13 09:25:05;;;;;;;26.85;16.98;;;;;;;11.48;69.47;99131.06;5070393;28;20474;-71
2022/10/13 09:27:59;;;;;;;23.73;16.50;;;;;;;11.57;69.82;99132.13;5070588;28;20440;-71
2022/10/13 09:30:37;;;;;;;22.50;16.42;;;;;;;11.69;69.71;99129.00;5070734;28;20032;-70
2022/10/13 09:33:12;;;;;;;25.50;16.37;;;;;;;11.80;69.41;99117.94;5070710;28;20044;-70
2022/10/13 09:35:43;;;;;;;23.60;15.73;;;;;;;11.93;69.54;99117.25;5084959;28;20401;-71
2022/10/13 09:38:13;;;;;;;24.52;16.02;;;;;;;12.05;69.75;99116.88;5091019;28;20028;-70
2022/10/13 09:40:41;;;;;;;24.23;15.20;;;;;;;12.17;69.55;99117.31;5091161;28;20059;-70
2022/10/13 09:43:28;;;;;;;21.70;13.98;;;;;;;12.28;69.24;99108.97;5091207;28;20485;-70
2022/10/13 09:45:54;;;;;;;25.60;15.05;;;;;;;12.38;68.63;99108.03;5090443;28;20416;-70
2022/10/13 09:48:24;;;;;;;21.65;14.10;;;;;;;12.45;69.03;99111.25;5090450;28;20089;-71
2022/10/13 09:50:53;;;;;;;22.88;13.30;;;;;;;12.55;69.19;99113.06;5090929;28;20028;-71
2022/10/13 09:53:31;;;;;;;19.75;13.25;;;;;;;12.64;68.67;99114.06;5091471;28;20040;-71
2022/10/13 09:56:22;;;;;;;19.90;13.50;;;;;;;12.74;68.47;99108.44;5090835;28;20583;-70
2022/10/13 09:59:11;;;;;;;20.50;14.65;;;;;;;12.86;68.01;99107.16;5068720;28;20098;-70
2022/10/13 10:01:40;;;;;;;21.77;12.93;;;;;;;12.94;67.90;99107.34;5053153;28;20029;-71
2022/10/13 10:04:11;;;;;;;16.25;9.60;;;;;;;13.01;67.75;99100.66;5090626;28;20470;-71
2022/10/13 10:06:38;;;;;;;16.48;10.43;;;;;;;13.10;67.49;99099.69;5090496;28;20107;-70
2022/10/13 10:09:16;;;;;;;16.20;10.35;;;;;;;13.20;67.08;99097.91;5072235;28;20027;-71
2022/10/13 10:11:44;;;;;;;18.85;9.98;;;;;;;13.28;66.70;99096.41;5072587;28;20512;-71
2022/10/13 10:14:37;;;;;;;14.93;9.70;;;;;;;13.34;66.56;99087.75;5090225;28;20030;-70
2022/10/13 10:17:08;;;;;;;14.15;9.45;;;;;;;13.45;66.11;99090.38;5078429;28;20102;-72
2022/10/13 10:19:45;;;;;;;15.52;9.07;;;;;;;13.52;65.88;99083.38;5089866;28;20025;-71
2022/10/13 10:22:20;;;;;;;11.75;8.43;;;;;;;13.64;65.83;99090.34;5090321;28;20047;-71
2022/10/13 10:24:51;;;;;;;13.40;9.15;;;;;;;13.73;65.62;99087.72;5089967;28;20038;-71
2022/10/13 10:27:34;;;;;;;13.65;8.93;;;;;;;13.83;65.61;99080.13;5089602;28;20048;-70
2022/10/13 10:30:04;;;;;;;14.18;8.30;;;;;;;13.94;64.73;99085.41;5070593;28;20064;-71
2022/10/13 10:32:53;;;;;;;14.57;8.30;;;;;;;14.02;65.00;99086.69;5070139;28;20036;-71
2022/10/13 10:35:45;;;;;;;13.93;8.90;;;;;;;14.10;64.43;99080.44;5069514;28;20110;-70
2022/10/13 10:38:13;;;;;;;12.52;8.20;;;;;;;14.18;64.43;99082.50;5069647;28;20494;-71
2022/10/13 10:40:50;;;;;;;15.23;9.20;;;;;;;14.27;63.99;99075.16;5069290;28;20039;-71
2022/10/13 10:43:29;;;;;;;14.90;8.18;;;;;;;14.36;63.77;99075.25;5069859;28;20109;-70
2022/10/13 10:45:57;;;;;;;14.63;8.52;;;;;;;14.42;63.70;99068.50;5078013;28;20028;-70
2022/10/13 10:48:28;;;;;;;13.20;8.00;;;;;;;14.51;63.20;99068.59;5089596;28;20030;-70
2022/10/13 10:50:54;;;;;;;12.50;8.25;;;;;;;14.59;63.22;99059.59;5089350;28;20020;-71
2022/10/13 10:53:53;;;;;;;11.80;7.88;;;;;;;14.66;62.25;99061.97;5089622;28;20093;-71
2022/10/13 10:56:46;;;;;;;13.77;8.65;;;;;;;14.73;62.66;99051.34;5088986;28;20051;-71
2022/10/13 10:59:29;;;;;;;12.75;8.35;;;;;;;14.87;61.79;99050.50;5065291;28;20035;-70
2022/10/13 11:02:06;;;;;;;15.10;8.73;;;;;;;14.99;62.18;99045.25;5069126;28;20023;-71
2022/10/13 11:04:48;;;;;;;15.20;8.43;;;;;;;15.15;61.73;99054.00;5071994;28;20032;-71
2022/10/13 11:07:23;;;;;;;15.07;10.05;;;;;;;15.29;61.68;99039.28;5051407;28;20059;-71
2022/10/13 11:09:51;;;;;;;17.58;10.07;;;;;;;15.39;61.17;99038.25;5068999;28;20482;-71
2022/10/13 11:12:19;;;;;;;17.02;9.05;;;;;;;15.52;60.33;99036.53;5067813;28;20776;-70
2022/10/13 11:15:10;;;;;;;19.30;10.57;;;;;;;15.67;61.55;99036.16;5049895;28;20510;-71
2022/10/13 11:17:37;;;;;;;18.58;11.32;;;;;;;15.84;60.98;99035.44;5061761;28;20039;-71
2022/10/13 11:20:21;;;;;;;16.27;9.98;;;;;;;15.96;60.75;99032.13;5089010;28;20028;-71
2022/10/13 11:23:12;;;;;;;20.35;12.07;;;;;;;16.07;60.50;99024.34;5089084;28;20020;-71
2022/10/13 11:25:47;;;;;;;19.17;11.82;;;;;;;16.18;60.42;99031.22;5067249;28;20051;-70
2022/10/13 11:28:22;;;;;;;19.77;12.18;;;;;;;16.31;60.18;99028.66;5069449;28;20509;-70
2022/10/13 11:31:06;;;;;;;22.73;12.32;;;;;;;16.40;60.05;99020.41;5086802;28;20043;-71
2022/10/13 11:33:33;;;;;;;21.58;12.25;;;;;;;16.48;59.70;99023.19;5068199;28;20256;-70
2022/10/13 11:36:33;;;;;;;21.38;11.77;;;;;;;16.46;59.22;99010.81;5068016;28;20039;-71
2022/10/13 11:39:29;;;;;;;19.58;11.63;;;;;;;16.47;59.20;99004.94;5068990;28;20136;-70